sensor_id;sensor_type;location;lat;lon;timestamp;temperature;humidity
37460;DHT22;23318;50.966;5.284;2023-03-11T00:01:04;0.40;99.90
37460;DHT22;23318;50.966;5.284;2023-03-11T00:03:30;0.60;99.90
37460;DHT22;23318;50.966;5.284;2023-03-11T00:05:59;0.70;99.90
37460;DHT22;23318;50.966;5.284;2023-03-11T00:08:24;0.50;99.90
37460;DHT22;23318;50.966;5.284;2023-03-11T00:10:53;0.30;99.90
37460;DHT22;23318;50.966;5.284;2023-03-11T00:13:20;0.10;99.90
37460;DHT22;23318;50.966;5.284;2023-03-11T00:15:48;0.00;99.90
37460;DHT22;23318;50.966;5.284;2023-03-11T00:18:15;-0.10;99.90
37460;DHT22;23318;50.966;5.284;2023-03-11T00:20:43;-0.10;99.90
37460;DHT22;23318;50.966;5.284;2023-03-11T00:23:11;-0.10;99.90
37460;DHT22;23318;50.966;5.284;2023-03-11T00:25:37;0.00;99.90
37460;DHT22;23318;50.966;5.284;2023-03-11T00:28:04;0.10;99.90
37460;DHT22;23318;50.966;5.284;2023-03-11T00:30:31;0.10;99.90
37460;DHT22;23318;50.966;5.284;2023-03-11T00:32:58;0.50;99.90
37460;DHT22;23318;50.966;5.284;2023-03-11T00:35:27;0.60;99.90
37460;DHT22;23318;50.966;5.284;2023-03-11T00:37:58;0.50;99.90
37460;DHT22;23318;50.966;5.284;2023-03-11T00:40:26;0.40;99.90
37460;DHT22;23318;50.966;5.284;2023-03-11T00:42:52;0.50;99.90
37460;DHT22;23318;50.966;5.284;2023-03-11T00:45:18;0.70;99.90
37460;DHT22;23318;50.966;5.284;2023-03-11T00:47:44;0.80;99.90
37460;DHT22;23318;50.966;5.284;2023-03-11T00:50:15;1.00;99.90
37460;DHT22;23318;50.966;5.284;2023-03-11T00:52:43;1.60;99.90
37460;DHT22;23318;50.966;5.284;2023-03-11T00:55:10;1.20;99.90
37460;DHT22;23318;50.966;5.284;2023-03-11T00:57:37;0.80;99.90
37460;DHT22;23318;50.966;5.284;2023-03-11T01:00:05;0.60;99.90
37460;DHT22;23318;50.966;5.284;2023-03-11T01:02:36;0.50;99.90
37460;DHT22;23318;50.966;5.284;2023-03-11T01:05:02;0.40;99.90
37460;DHT22;23318;50.966;5.284;2023-03-11T01:07:28;0.50;99.90
37460;DHT22;23318;50.966;5.284;2023-03-11T01:09:53;0.60;99.90
37460;DHT22;23318;50.966;5.284;2023-03-11T01:12:19;0.60;99.90
37460;DHT22;23318;50.966;5.284;2023-03-11T01:14:45;0.50;99.90
37460;DHT22;23318;50.966;5.284;2023-03-11T01:17:10;0.60;99.90
37460;DHT22;23318;50.966;5.284;2023-03-11T01:19:36;0.90;99.90
37460;DHT22;23318;50.966;5.284;2023-03-11T01:22:02;0.80;99.90
37460;DHT22;23318;50.966;5.284;2023-03-11T01:24:27;0.90;99.90
37460;DHT22;23318;50.966;5.284;2023-03-11T01:26:53;0.90;99.90
37460;DHT22;23318;50.966;5.284;2023-03-11T01:29:19;0.80;99.90
37460;DHT22;23318;50.966;5.284;2023-03-11T01:31:44;0.90;99.90
37460;DHT22;23318;50.966;5.284;2023-03-11T01:34:10;0.90;99.90
37460;DHT22;23318;50.966;5.284;2023-03-11T01:36:37;1.10;99.90
37460;DHT22;23318;50.966;5.284;2023-03-11T01:39:03;1.00;99.90
37460;DHT22;23318;50.966;5.284;2023-03-11T01:41:29;0.80;99.90
37460;DHT22;23318;50.966;5.284;2023-03-11T01:43:54;0.60;99.90
37460;DHT22;23318;50.966;5.284;2023-03-11T01:49:12;0.50;99.90
37460;DHT22;23318;50.966;5.284;2023-03-11T01:51:43;0.50;99.90
37460;DHT22;23318;50.966;5.284;2023-03-11T01:56:45;0.90;99.90
37460;DHT22;23318;50.966;5.284;2023-03-11T01:59:15;1.20;99.90
37460;DHT22;23318;50.966;5.284;2023-03-11T02:01:48;1.20;99.90
37460;DHT22;23318;50.966;5.284;2023-03-11T02:04:17;1.30;99.90
37460;DHT22;23318;50.966;5.284;2023-03-11T02:06:43;1.20;99.90
37460;DHT22;23318;50.966;5.284;2023-03-11T02:09:09;1.00;99.90
37460;DHT22;23318;50.966;5.284;2023-03-11T02:11:34;1.00;99.90
37460;DHT22;23318;50.966;5.284;2023-03-11T02:14:03;1.00;99.90
37460;DHT22;23318;50.966;5.284;2023-03-11T02:16:30;1.00;99.90
37460;DHT22;23318;50.966;5.284;2023-03-11T02:18:59;1.00;99.90
37460;DHT22;23318;50.966;5.284;2023-03-11T02:21:31;0.80;99.90
37460;DHT22;23318;50.966;5.284;2023-03-11T02:24:06;0.90;99.90
37460;DHT22;23318;50.966;5.284;2023-03-11T02:29:21;1.40;99.90
37460;DHT22;23318;50.966;5.284;2023-03-11T02:31:47;1.80;99.90
37460;DHT22;23318;50.966;5.284;2023-03-11T02:34:39;2.00;99.90
37460;DHT22;23318;50.966;5.284;2023-03-11T02:37:07;2.10;99.90
37460;DHT22;23318;50.966;5.284;2023-03-11T02:39:36;2.10;99.90
37460;DHT22;23318;50.966;5.284;2023-03-11T02:42:10;2.00;99.90
37460;DHT22;23318;50.966;5.284;2023-03-11T02:44:37;1.70;99.90
37460;DHT22;23318;50.966;5.284;2023-03-11T02:47:03;1.20;99.90
37460;DHT22;23318;50.966;5.284;2023-03-11T02:49:30;0.60;99.90
37460;DHT22;23318;50.966;5.284;2023-03-11T02:51:56;0.30;99.90
37460;DHT22;23318;50.966;5.284;2023-03-11T02:54:22;0.40;99.90
37460;DHT22;23318;50.966;5.284;2023-03-11T02:56:47;0.30;99.90
37460;DHT22;23318;50.966;5.284;2023-03-11T02:59:13;0.20;99.90
37460;DHT22;23318;50.966;5.284;2023-03-11T03:01:39;0.20;99.90
37460;DHT22;23318;50.966;5.284;2023-03-11T03:04:04;0.40;99.90
37460;DHT22;23318;50.966;5.284;2023-03-11T03:06:30;0.50;99.90
37460;DHT22;23318;50.966;5.284;2023-03-11T03:08:56;0.50;99.90
37460;DHT22;23318;50.966;5.284;2023-03-11T03:11:21;0.40;99.90
37460;DHT22;23318;50.966;5.284;2023-03-11T03:13:47;0.50;99.90
37460;DHT22;23318;50.966;5.284;2023-03-11T03:16:13;0.40;99.90
37460;DHT22;23318;50.966;5.284;2023-03-11T03:18:38;0.50;99.90
37460;DHT22;23318;50.966;5.284;2023-03-11T03:21:04;0.60;99.90
37460;DHT22;23318;50.966;5.284;2023-03-11T03:23:30;1.10;99.90
37460;DHT22;23318;50.966;5.284;2023-03-11T03:26:00;1.10;99.90
37460;DHT22;23318;50.966;5.284;2023-03-11T03:28:26;0.90;99.90
37460;DHT22;23318;50.966;5.284;2023-03-11T03:30:52;0.90;99.90
37460;DHT22;23318;50.966;5.284;2023-03-11T03:33:18;1.00;99.90
37460;DHT22;23318;50.966;5.284;2023-03-11T03:35:44;1.00;99.90
37460;DHT22;23318;50.966;5.284;2023-03-11T03:38:10;0.90;99.90
37460;DHT22;23318;50.966;5.284;2023-03-11T03:40:36;0.90;99.90
37460;DHT22;23318;50.966;5.284;2023-03-11T03:43:02;0.80;99.90
37460;DHT22;23318;50.966;5.284;2023-03-11T03:45:28;1.00;99.90
37460;DHT22;23318;50.966;5.284;2023-03-11T03:47:54;0.90;99.90
37460;DHT22;23318;50.966;5.284;2023-03-11T03:50:20;1.20;99.90
37460;DHT22;23318;50.966;5.284;2023-03-11T03:52:46;1.10;99.90
37460;DHT22;23318;50.966;5.284;2023-03-11T03:55:12;1.00;99.90
37460;DHT22;23318;50.966;5.284;2023-03-11T03:57:38;1.40;99.90
37460;DHT22;23318;50.966;5.284;2023-03-11T04:00:04;1.70;99.90
37460;DHT22;23318;50.966;5.284;2023-03-11T04:02:33;1.90;99.90
37460;DHT22;23318;50.966;5.284;2023-03-11T04:04:59;2.00;99.90
37460;DHT22;23318;50.966;5.284;2023-03-11T04:07:25;2.10;99.90
37460;DHT22;23318;50.966;5.284;2023-03-11T04:09:50;2.00;99.90
37460;DHT22;23318;50.966;5.284;2023-03-11T04:12:16;1.80;99.90
37460;DHT22;23318;50.966;5.284;2023-03-11T04:14:42;1.40;99.90
37460;DHT22;23318;50.966;5.284;2023-03-11T04:17:12;1.40;99.90
37460;DHT22;23318;50.966;5.284;2023-03-11T04:19:38;1.40;99.90
37460;DHT22;23318;50.966;5.284;2023-03-11T04:22:05;1.80;99.90
37460;DHT22;23318;50.966;5.284;2023-03-11T04:24:31;2.10;99.90
37460;DHT22;23318;50.966;5.284;2023-03-11T04:26:57;2.40;99.90
37460;DHT22;23318;50.966;5.284;2023-03-11T04:29:22;2.40;99.90
37460;DHT22;23318;50.966;5.284;2023-03-11T04:31:48;2.30;99.90
37460;DHT22;23318;50.966;5.284;2023-03-11T04:34:14;2.30;99.90
37460;DHT22;23318;50.966;5.284;2023-03-11T04:36:40;2.30;99.90
37460;DHT22;23318;50.966;5.284;2023-03-11T04:39:06;2.10;99.90
37460;DHT22;23318;50.966;5.284;2023-03-11T04:41:32;2.10;99.90
37460;DHT22;23318;50.966;5.284;2023-03-11T04:43:58;2.10;99.90
37460;DHT22;23318;50.966;5.284;2023-03-11T04:46:24;1.40;99.90
37460;DHT22;23318;50.966;5.284;2023-03-11T04:48:50;0.50;99.90
37460;DHT22;23318;50.966;5.284;2023-03-11T04:51:16;0.10;99.90
37460;DHT22;23318;50.966;5.284;2023-03-11T04:53:41;0.30;99.90
37460;DHT22;23318;50.966;5.284;2023-03-11T04:56:07;0.20;99.90
37460;DHT22;23318;50.966;5.284;2023-03-11T04:58:33;0.50;99.90
37460;DHT22;23318;50.966;5.284;2023-03-11T05:00:58;0.80;99.90
37460;DHT22;23318;50.966;5.284;2023-03-11T05:03:24;1.10;99.90
37460;DHT22;23318;50.966;5.284;2023-03-11T05:05:50;1.30;99.90
37460;DHT22;23318;50.966;5.284;2023-03-11T05:08:18;1.50;99.90
37460;DHT22;23318;50.966;5.284;2023-03-11T05:10:44;1.10;99.90
37460;DHT22;23318;50.966;5.284;2023-03-11T05:13:10;0.50;99.90
37460;DHT22;23318;50.966;5.284;2023-03-11T05:15:35;0.10;99.90
37460;DHT22;23318;50.966;5.284;2023-03-11T05:18:02;-0.10;99.90
37460;DHT22;23318;50.966;5.284;2023-03-11T05:20:28;-0.50;99.90
37460;DHT22;23318;50.966;5.284;2023-03-11T05:22:55;-0.70;99.90
37460;DHT22;23318;50.966;5.284;2023-03-11T05:25:21;-0.80;99.90
37460;DHT22;23318;50.966;5.284;2023-03-11T05:27:46;-0.80;99.90
37460;DHT22;23318;50.966;5.284;2023-03-11T05:30:12;-0.50;99.90
37460;DHT22;23318;50.966;5.284;2023-03-11T05:32:39;0.10;99.90
37460;DHT22;23318;50.966;5.284;2023-03-11T05:35:05;0.60;99.90
37460;DHT22;23318;50.966;5.284;2023-03-11T05:37:31;0.90;99.90
37460;DHT22;23318;50.966;5.284;2023-03-11T05:39:57;1.00;99.90
37460;DHT22;23318;50.966;5.284;2023-03-11T05:42:23;1.10;99.90
37460;DHT22;23318;50.966;5.284;2023-03-11T05:44:48;1.20;99.90
37460;DHT22;23318;50.966;5.284;2023-03-11T05:47:16;1.40;99.90
37460;DHT22;23318;50.966;5.284;2023-03-11T05:49:41;1.30;99.90
37460;DHT22;23318;50.966;5.284;2023-03-11T05:52:07;1.20;99.90
37460;DHT22;23318;50.966;5.284;2023-03-11T05:54:33;0.40;99.90
37460;DHT22;23318;50.966;5.284;2023-03-11T05:56:59;0.20;99.90
37460;DHT22;23318;50.966;5.284;2023-03-11T05:59:25;0.10;99.90
37460;DHT22;23318;50.966;5.284;2023-03-11T06:01:51;-0.30;99.90
37460;DHT22;23318;50.966;5.284;2023-03-11T06:04:17;-0.60;99.90
37460;DHT22;23318;50.966;5.284;2023-03-11T06:06:42;-0.70;99.90
37460;DHT22;23318;50.966;5.284;2023-03-11T06:09:12;-0.60;99.90
37460;DHT22;23318;50.966;5.284;2023-03-11T06:11:38;-0.60;99.90
37460;DHT22;23318;50.966;5.284;2023-03-11T06:14:04;0.10;99.90
37460;DHT22;23318;50.966;5.284;2023-03-11T06:16:30;0.30;99.90
37460;DHT22;23318;50.966;5.284;2023-03-11T06:18:55;0.50;99.90
37460;DHT22;23318;50.966;5.284;2023-03-11T06:21:23;0.30;99.90
37460;DHT22;23318;50.966;5.284;2023-03-11T06:23:51;0.00;99.90
37460;DHT22;23318;50.966;5.284;2023-03-11T06:26:18;-0.40;99.90
37460;DHT22;23318;50.966;5.284;2023-03-11T06:28:45;-0.50;99.90
37460;DHT22;23318;50.966;5.284;2023-03-11T06:31:19;-0.10;99.90
37460;DHT22;23318;50.966;5.284;2023-03-11T06:33:46;0.30;99.90
37460;DHT22;23318;50.966;5.284;2023-03-11T06:36:13;0.60;99.90
37460;DHT22;23318;50.966;5.284;2023-03-11T06:38:40;0.60;99.90
37460;DHT22;23318;50.966;5.284;2023-03-11T06:41:06;0.60;99.90
37460;DHT22;23318;50.966;5.284;2023-03-11T06:43:33;0.70;99.90
37460;DHT22;23318;50.966;5.284;2023-03-11T06:46:00;0.70;99.90
37460;DHT22;23318;50.966;5.284;2023-03-11T06:48:27;0.70;99.90
37460;DHT22;23318;50.966;5.284;2023-03-11T06:50:54;0.80;99.90
37460;DHT22;23318;50.966;5.284;2023-03-11T06:53:20;0.80;99.90
37460;DHT22;23318;50.966;5.284;2023-03-11T06:56:05;0.80;99.90
37460;DHT22;23318;50.966;5.284;2023-03-11T06:58:32;0.80;99.90
37460;DHT22;23318;50.966;5.284;2023-03-11T07:01:04;0.90;99.90
37460;DHT22;23318;50.966;5.284;2023-03-11T07:03:30;0.80;99.90
37460;DHT22;23318;50.966;5.284;2023-03-11T07:05:57;0.80;99.90
37460;DHT22;23318;50.966;5.284;2023-03-11T07:08:22;0.90;99.90
37460;DHT22;23318;50.966;5.284;2023-03-11T07:11:02;0.90;99.90
37460;DHT22;23318;50.966;5.284;2023-03-11T07:13:28;1.10;99.90
37460;DHT22;23318;50.966;5.284;2023-03-11T07:16:14;1.20;99.90
37460;DHT22;23318;50.966;5.284;2023-03-11T07:18:41;1.20;99.90
37460;DHT22;23318;50.966;5.284;2023-03-11T07:21:08;1.40;99.90
37460;DHT22;23318;50.966;5.284;2023-03-11T07:23:35;1.10;99.90
37460;DHT22;23318;50.966;5.284;2023-03-11T07:26:01;0.40;99.90
37460;DHT22;23318;50.966;5.284;2023-03-11T07:28:28;0.30;99.90
37460;DHT22;23318;50.966;5.284;2023-03-11T07:30:53;0.10;99.90
37460;DHT22;23318;50.966;5.284;2023-03-11T07:33:20;0.00;99.90
37460;DHT22;23318;50.966;5.284;2023-03-11T07:35:48;0.10;99.90
37460;DHT22;23318;50.966;5.284;2023-03-11T07:38:15;0.20;99.90
37460;DHT22;23318;50.966;5.284;2023-03-11T07:40:41;0.40;99.90
37460;DHT22;23318;50.966;5.284;2023-03-11T07:43:07;0.40;99.90
37460;DHT22;23318;50.966;5.284;2023-03-11T07:45:33;0.30;99.90
37460;DHT22;23318;50.966;5.284;2023-03-11T07:47:59;0.20;99.90
37460;DHT22;23318;50.966;5.284;2023-03-11T07:50:24;0.40;99.90
37460;DHT22;23318;50.966;5.284;2023-03-11T07:52:50;0.70;99.90
37460;DHT22;23318;50.966;5.284;2023-03-11T07:55:16;0.90;99.90
37460;DHT22;23318;50.966;5.284;2023-03-11T07:57:42;0.90;99.90
37460;DHT22;23318;50.966;5.284;2023-03-11T08:00:09;1.10;99.90
37460;DHT22;23318;50.966;5.284;2023-03-11T08:02:35;1.00;99.90
37460;DHT22;23318;50.966;5.284;2023-03-11T08:05:01;0.90;99.90
37460;DHT22;23318;50.966;5.284;2023-03-11T08:07:26;1.20;99.90
37460;DHT22;23318;50.966;5.284;2023-03-11T08:09:55;1.30;99.90
37460;DHT22;23318;50.966;5.284;2023-03-11T08:12:20;1.50;99.90
37460;DHT22;23318;50.966;5.284;2023-03-11T08:14:46;1.40;99.90
37460;DHT22;23318;50.966;5.284;2023-03-11T08:17:12;1.20;99.90
37460;DHT22;23318;50.966;5.284;2023-03-11T08:19:37;1.10;99.90
37460;DHT22;23318;50.966;5.284;2023-03-11T08:22:03;1.10;99.90
37460;DHT22;23318;50.966;5.284;2023-03-11T08:24:29;1.20;99.90
37460;DHT22;23318;50.966;5.284;2023-03-11T08:26:54;1.30;99.90
37460;DHT22;23318;50.966;5.284;2023-03-11T08:29:22;1.60;99.90
37460;DHT22;23318;50.966;5.284;2023-03-11T08:31:48;1.60;99.90
37460;DHT22;23318;50.966;5.284;2023-03-11T08:34:14;1.80;99.90
37460;DHT22;23318;50.966;5.284;2023-03-11T08:36:40;1.80;99.90
37460;DHT22;23318;50.966;5.284;2023-03-11T08:39:05;2.00;99.90
37460;DHT22;23318;50.966;5.284;2023-03-11T08:41:31;1.90;99.90
37460;DHT22;23318;50.966;5.284;2023-03-11T08:44:03;2.00;99.90
37460;DHT22;23318;50.966;5.284;2023-03-11T08:46:32;2.30;99.90
37460;DHT22;23318;50.966;5.284;2023-03-11T08:48:58;2.90;99.90
37460;DHT22;23318;50.966;5.284;2023-03-11T08:51:24;2.90;99.90
37460;DHT22;23318;50.966;5.284;2023-03-11T08:53:51;2.90;99.90
37460;DHT22;23318;50.966;5.284;2023-03-11T08:56:17;2.80;99.90
37460;DHT22;23318;50.966;5.284;2023-03-11T08:58:43;3.30;99.90
37460;DHT22;23318;50.966;5.284;2023-03-11T09:01:10;3.60;99.90
37460;DHT22;23318;50.966;5.284;2023-03-11T09:03:37;3.60;99.90
37460;DHT22;23318;50.966;5.284;2023-03-11T09:06:05;3.50;99.90
37460;DHT22;23318;50.966;5.284;2023-03-11T09:08:31;3.80;99.90
37460;DHT22;23318;50.966;5.284;2023-03-11T09:10:58;4.20;99.90
37460;DHT22;23318;50.966;5.284;2023-03-11T09:13:28;4.40;99.90
37460;DHT22;23318;50.966;5.284;2023-03-11T09:15:55;4.50;99.90
37460;DHT22;23318;50.966;5.284;2023-03-11T09:18:21;4.50;99.90
37460;DHT22;23318;50.966;5.284;2023-03-11T09:20:46;4.40;99.90
37460;DHT22;23318;50.966;5.284;2023-03-11T09:23:15;4.90;99.90
37460;DHT22;23318;50.966;5.284;2023-03-11T09:25:41;4.90;99.90
37460;DHT22;23318;50.966;5.284;2023-03-11T09:28:06;4.50;99.90
37460;DHT22;23318;50.966;5.284;2023-03-11T09:30:32;4.40;99.90
37460;DHT22;23318;50.966;5.284;2023-03-11T09:32:58;4.30;99.90
37460;DHT22;23318;50.966;5.284;2023-03-11T09:35:24;4.50;99.90
37460;DHT22;23318;50.966;5.284;2023-03-11T09:37:50;4.50;99.90
37460;DHT22;23318;50.966;5.284;2023-03-11T09:40:19;4.90;99.90
37460;DHT22;23318;50.966;5.284;2023-03-11T09:42:48;5.00;99.90
37460;DHT22;23318;50.966;5.284;2023-03-11T09:45:19;5.50;99.90
37460;DHT22;23318;50.966;5.284;2023-03-11T09:48:17;6.00;98.20
37460;DHT22;23318;50.966;5.284;2023-03-11T09:50:56;5.90;97.20
37460;DHT22;23318;50.966;5.284;2023-03-11T09:56:06;6.00;98.10
37460;DHT22;23318;50.966;5.284;2023-03-11T09:59:06;6.10;98.00
37460;DHT22;23318;50.966;5.284;2023-03-11T10:01:29;6.30;96.90
37460;DHT22;23318;50.966;5.284;2023-03-11T10:04:48;6.90;97.10
37460;DHT22;23318;50.966;5.284;2023-03-11T10:06:52;7.10;96.30
37460;DHT22;23318;50.966;5.284;2023-03-11T10:09:42;7.10;96.60
37460;DHT22;23318;50.966;5.284;2023-03-11T10:15:19;6.30;96.30
37460;DHT22;23318;50.966;5.284;2023-03-11T10:26:19;6.50;96.70
37460;DHT22;23318;50.966;5.284;2023-03-11T10:28:52;6.70;95.90
37460;DHT22;23318;50.966;5.284;2023-03-11T10:31:36;7.40;95.40
37460;DHT22;23318;50.966;5.284;2023-03-11T10:34:35;7.30;96.10
37460;DHT22;23318;50.966;5.284;2023-03-11T10:37:24;7.30;95.70
37460;DHT22;23318;50.966;5.284;2023-03-11T10:39:50;7.90;95.80
37460;DHT22;23318;50.966;5.284;2023-03-11T10:42:27;7.80;95.00
37460;DHT22;23318;50.966;5.284;2023-03-11T10:44:53;7.50;95.00
37460;DHT22;23318;50.966;5.284;2023-03-11T10:47:23;7.60;94.90
37460;DHT22;23318;50.966;5.284;2023-03-11T10:49:50;8.20;94.50
37460;DHT22;23318;50.966;5.284;2023-03-11T10:52:18;8.30;94.40
37460;DHT22;23318;50.966;5.284;2023-03-11T10:54:57;9.80;93.80
37460;DHT22;23318;50.966;5.284;2023-03-11T10:57:35;11.40;91.70
37460;DHT22;23318;50.966;5.284;2023-03-11T11:00:08;11.70;92.30
37460;DHT22;23318;50.966;5.284;2023-03-11T11:02:55;12.00;91.10
37460;DHT22;23318;50.966;5.284;2023-03-11T11:05:31;11.80;90.50
37460;DHT22;23318;50.966;5.284;2023-03-11T11:08:14;11.20;91.80
37460;DHT22;23318;50.966;5.284;2023-03-11T11:11:01;11.20;91.20
37460;DHT22;23318;50.966;5.284;2023-03-11T11:13:32;11.80;91.00
37460;DHT22;23318;50.966;5.284;2023-03-11T11:16:03;13.60;90.10
37460;DHT22;23318;50.966;5.284;2023-03-11T11:18:46;12.70;89.10
37460;DHT22;23318;50.966;5.284;2023-03-11T11:24:13;13.50;87.80
37460;DHT22;23318;50.966;5.284;2023-03-11T11:26:40;14.20;88.50
37460;DHT22;23318;50.966;5.284;2023-03-11T11:31:41;13.90;84.90
37460;DHT22;23318;50.966;5.284;2023-03-11T11:36:51;14.40;84.30
37460;DHT22;23318;50.966;5.284;2023-03-11T11:39:19;15.60;81.50
37460;DHT22;23318;50.966;5.284;2023-03-11T11:41:47;16.30;79.40
37460;DHT22;23318;50.966;5.284;2023-03-11T11:44:18;15.90;77.90
37460;DHT22;23318;50.966;5.284;2023-03-11T11:49:30;12.80;79.30
37460;DHT22;23318;50.966;5.284;2023-03-11T11:57:20;10.80;85.00
37460;DHT22;23318;50.966;5.284;2023-03-11T11:59:47;9.90;84.30
37460;DHT22;23318;50.966;5.284;2023-03-11T12:05:15;11.00;82.80
37460;DHT22;23318;50.966;5.284;2023-03-11T12:26:53;12.80;77.00
37460;DHT22;23318;50.966;5.284;2023-03-11T12:29:35;14.00;77.50
37460;DHT22;23318;50.966;5.284;2023-03-11T12:32:01;12.30;77.90
37460;DHT22;23318;50.966;5.284;2023-03-11T12:34:28;13.60;78.90
37460;DHT22;23318;50.966;5.284;2023-03-11T12:36:58;17.10;75.70
37460;DHT22;23318;50.966;5.284;2023-03-11T12:39:30;17.50;73.10
37460;DHT22;23318;50.966;5.284;2023-03-11T12:44:41;20.40;66.80
37460;DHT22;23318;50.966;5.284;2023-03-11T12:49:35;18.00;66.90
37460;DHT22;23318;50.966;5.284;2023-03-11T12:54:34;19.00;63.70
37460;DHT22;23318;50.966;5.284;2023-03-11T12:57:09;21.00;62.40
37460;DHT22;23318;50.966;5.284;2023-03-11T13:07:51;15.00;64.90
37460;DHT22;23318;50.966;5.284;2023-03-11T13:10:38;16.20;63.50
37460;DHT22;23318;50.966;5.284;2023-03-11T13:13:31;16.30;63.90
37460;DHT22;23318;50.966;5.284;2023-03-11T13:18:41;16.00;64.00
37460;DHT22;23318;50.966;5.284;2023-03-11T13:21:37;17.70;62.40
37460;DHT22;23318;50.966;5.284;2023-03-11T13:40:27;20.00;58.60
37460;DHT22;23318;50.966;5.284;2023-03-11T13:42:59;22.00;58.00
37460;DHT22;23318;50.966;5.284;2023-03-11T13:45:33;20.40;53.40
37460;DHT22;23318;50.966;5.284;2023-03-11T13:48:15;17.90;57.50
37460;DHT22;23318;50.966;5.284;2023-03-11T13:51:03;16.50;58.20
37460;DHT22;23318;50.966;5.284;2023-03-11T13:53:31;19.30;58.20
37460;DHT22;23318;50.966;5.284;2023-03-11T13:55:58;16.50;56.80
37460;DHT22;23318;50.966;5.284;2023-03-11T13:58:26;17.20;58.60
37460;DHT22;23318;50.966;5.284;2023-03-11T14:00:54;15.80;52.10
37460;DHT22;23318;50.966;5.284;2023-03-11T14:03:21;13.60;58.70
37460;DHT22;23318;50.966;5.284;2023-03-11T14:05:57;16.30;59.20
37460;DHT22;23318;50.966;5.284;2023-03-11T14:13:49;18.70;53.20
37460;DHT22;23318;50.966;5.284;2023-03-11T14:16:19;17.90;54.60
37460;DHT22;23318;50.966;5.284;2023-03-11T14:18:47;18.80;53.60
37460;DHT22;23318;50.966;5.284;2023-03-11T14:21:14;19.50;54.20
37460;DHT22;23318;50.966;5.284;2023-03-11T14:23:49;20.20;52.50
37460;DHT22;23318;50.966;5.284;2023-03-11T14:26:29;19.70;52.00
37460;DHT22;23318;50.966;5.284;2023-03-11T14:28:58;18.90;52.90
37460;DHT22;23318;50.966;5.284;2023-03-11T14:31:31;20.10;53.70
37460;DHT22;23318;50.966;5.284;2023-03-11T14:34:02;17.20;54.20
37460;DHT22;23318;50.966;5.284;2023-03-11T14:36:46;18.60;54.10
37460;DHT22;23318;50.966;5.284;2023-03-11T14:41:56;17.30;54.90
37460;DHT22;23318;50.966;5.284;2023-03-11T14:44:24;19.20;53.00
37460;DHT22;23318;50.966;5.284;2023-03-11T14:46:54;20.30;52.10
37460;DHT22;23318;50.966;5.284;2023-03-11T14:49:23;21.50;54.00
37460;DHT22;23318;50.966;5.284;2023-03-11T14:51:59;21.00;52.60
37460;DHT22;23318;50.966;5.284;2023-03-11T14:54:29;20.50;52.40
37460;DHT22;23318;50.966;5.284;2023-03-11T14:57:09;16.50;55.00
37460;DHT22;23318;50.966;5.284;2023-03-11T14:59:39;15.90;57.10
37460;DHT22;23318;50.966;5.284;2023-03-11T15:02:29;17.60;53.70
37460;DHT22;23318;50.966;5.284;2023-03-11T15:04:56;19.90;54.70
37460;DHT22;23318;50.966;5.284;2023-03-11T15:07:23;18.90;52.90
37460;DHT22;23318;50.966;5.284;2023-03-11T15:09:49;18.30;53.60
37460;DHT22;23318;50.966;5.284;2023-03-11T15:12:32;16.90;53.00
37460;DHT22;23318;50.966;5.284;2023-03-11T15:14:58;18.40;52.40
37460;DHT22;23318;50.966;5.284;2023-03-11T15:17:26;21.30;52.00
37460;DHT22;23318;50.966;5.284;2023-03-11T15:19:57;20.80;53.40
37460;DHT22;23318;50.966;5.284;2023-03-11T15:22:37;20.90;50.90
37460;DHT22;23318;50.966;5.284;2023-03-11T15:25:13;21.10;51.90
37460;DHT22;23318;50.966;5.284;2023-03-11T15:27:39;17.30;52.50
37460;DHT22;23318;50.966;5.284;2023-03-11T15:30:34;20.00;52.70
37460;DHT22;23318;50.966;5.284;2023-03-11T15:33:00;19.90;51.90
37460;DHT22;23318;50.966;5.284;2023-03-11T15:35:28;20.80;53.00
37460;DHT22;23318;50.966;5.284;2023-03-11T15:41:00;21.00;52.00
37460;DHT22;23318;50.966;5.284;2023-03-11T15:43:27;19.60;51.50
37460;DHT22;23318;50.966;5.284;2023-03-11T15:45:56;20.90;51.00
37460;DHT22;23318;50.966;5.284;2023-03-11T15:48:23;20.50;51.30
37460;DHT22;23318;50.966;5.284;2023-03-11T15:50:54;20.40;50.20
37460;DHT22;23318;50.966;5.284;2023-03-11T15:53:21;18.90;54.10
37460;DHT22;23318;50.966;5.284;2023-03-11T15:55:47;17.10;51.90
37460;DHT22;23318;50.966;5.284;2023-03-11T15:58:15;16.50;55.80
37460;DHT22;23318;50.966;5.284;2023-03-11T16:00:48;18.40;55.10
37460;DHT22;23318;50.966;5.284;2023-03-11T16:03:14;20.20;52.70
37460;DHT22;23318;50.966;5.284;2023-03-11T16:05:40;21.40;51.80
37460;DHT22;23318;50.966;5.284;2023-03-11T16:08:06;21.30;50.10
37460;DHT22;23318;50.966;5.284;2023-03-11T16:10:32;20.90;51.20
37460;DHT22;23318;50.966;5.284;2023-03-11T16:12:57;19.00;51.00
37460;DHT22;23318;50.966;5.284;2023-03-11T16:15:32;20.10;50.60
37460;DHT22;23318;50.966;5.284;2023-03-11T16:18:00;20.70;49.00
37460;DHT22;23318;50.966;5.284;2023-03-11T16:20:33;20.10;50.50
37460;DHT22;23318;50.966;5.284;2023-03-11T16:23:01;20.80;48.80
37460;DHT22;23318;50.966;5.284;2023-03-11T16:25:30;19.90;46.80
37460;DHT22;23318;50.966;5.284;2023-03-11T16:27:58;20.10;49.10
37460;DHT22;23318;50.966;5.284;2023-03-11T16:30:28;21.00;47.80
37460;DHT22;23318;50.966;5.284;2023-03-11T16:32:54;18.00;48.40
37460;DHT22;23318;50.966;5.284;2023-03-11T16:35:20;14.30;54.10
37460;DHT22;23318;50.966;5.284;2023-03-11T16:37:46;14.90;54.80
37460;DHT22;23318;50.966;5.284;2023-03-11T16:40:24;14.90;55.40
37460;DHT22;23318;50.966;5.284;2023-03-11T16:42:58;14.30;55.40
37460;DHT22;23318;50.966;5.284;2023-03-11T16:45:24;13.70;56.80
37460;DHT22;23318;50.966;5.284;2023-03-11T16:47:50;12.40;57.10
37460;DHT22;23318;50.966;5.284;2023-03-11T16:50:16;12.80;59.90
37460;DHT22;23318;50.966;5.284;2023-03-11T16:52:41;12.60;60.80
37460;DHT22;23318;50.966;5.284;2023-03-11T16:55:08;12.40;61.80
37460;DHT22;23318;50.966;5.284;2023-03-11T16:57:33;12.00;63.50
37460;DHT22;23318;50.966;5.284;2023-03-11T16:59:59;11.70;64.90
37460;DHT22;23318;50.966;5.284;2023-03-11T17:02:25;11.30;66.10
37460;DHT22;23318;50.966;5.284;2023-03-11T17:04:51;10.80;64.40
37460;DHT22;23318;50.966;5.284;2023-03-11T17:07:16;10.50;66.70
37460;DHT22;23318;50.966;5.284;2023-03-11T17:09:42;10.30;67.70
37460;DHT22;23318;50.966;5.284;2023-03-11T17:12:08;10.20;66.50
37460;DHT22;23318;50.966;5.284;2023-03-11T17:14:36;10.10;68.40
37460;DHT22;23318;50.966;5.284;2023-03-11T17:17:02;10.20;69.60
37460;DHT22;23318;50.966;5.284;2023-03-11T17:19:29;10.10;70.10
37460;DHT22;23318;50.966;5.284;2023-03-11T17:21:55;9.90;71.00
37460;DHT22;23318;50.966;5.284;2023-03-11T17:24:22;9.80;72.40
37460;DHT22;23318;50.966;5.284;2023-03-11T17:26:47;9.70;73.20
37460;DHT22;23318;50.966;5.284;2023-03-11T17:29:13;9.70;75.50
37460;DHT22;23318;50.966;5.284;2023-03-11T17:31:39;9.60;74.20
37460;DHT22;23318;50.966;5.284;2023-03-11T17:34:05;9.60;74.50
37460;DHT22;23318;50.966;5.284;2023-03-11T17:36:30;9.60;74.90